createdAt,value
2019-03-06T00:03:37.639Z,57.98
2019-03-06T00:07:43.379Z,58.21
2019-03-06T00:11:49.306Z,59.10
2019-03-06T00:15:55.026Z,58.76
2019-03-06T00:20:00.721Z,59.19
2019-03-06T00:24:08.628Z,59.56
2019-03-06T00:28:15.619Z,58.97
2019-03-06T00:32:21.396Z,59.13
2019-03-06T00:36:27.704Z,58.46
2019-03-06T00:40:51.403Z,57.81
2019-03-06T00:44:57.094Z,57.79
2019-03-06T00:49:02.882Z,58.85
2019-03-06T00:53:08.594Z,58.76
2019-03-06T00:57:14.270Z,58.37
2019-03-06T01:01:20.102Z,58.37
2019-03-06T01:05:25.900Z,59.40
2019-03-06T01:09:31.577Z,59.49
2019-03-06T01:13:37.325Z,58.73
2019-03-06T01:17:43.077Z,57.95
2019-03-06T01:21:48.762Z,57.75
2019-03-06T01:25:54.566Z,57.47
2019-03-06T01:30:01.213Z,57.42
2019-03-06T01:34:14.371Z,57.39
2019-03-06T01:38:21.682Z,57.40
2019-03-06T01:42:29.041Z,57.83
2019-03-06T01:46:34.732Z,57.01
2019-03-06T01:50:40.417Z,57.44
2019-03-06T01:54:46.119Z,56.60
2019-03-06T01:58:51.985Z,59.74
2019-03-06T02:02:57.746Z,58.49
2019-03-06T02:07:03.687Z,58.61
2019-03-06T02:11:09.796Z,57.00
2019-03-06T02:15:19.735Z,59.19
2019-03-06T02:19:25.419Z,56.80
2019-03-06T02:23:31.163Z,56.66
2019-03-06T02:27:36.978Z,57.12
2019-03-06T02:31:42.651Z,55.95
2019-03-06T02:35:48.342Z,58.52
2019-03-06T02:39:54.106Z,57.27
2019-03-06T02:43:59.825Z,56.88
2019-03-06T02:48:05.572Z,57.15
2019-03-06T02:52:11.279Z,57.55
2019-03-06T02:56:18.039Z,58.25
2019-03-06T03:00:32.961Z,57.76
2019-03-06T03:04:46.449Z,57.59
2019-03-06T03:08:52.112Z,58.17
2019-03-06T03:12:58.833Z,58.01
2019-03-06T03:17:04.755Z,57.26
2019-03-06T03:21:10.446Z,57.76
2019-03-06T03:25:16.134Z,57.51
2019-03-06T03:29:22.085Z,57.07
2019-03-06T03:33:27.781Z,58.68
2019-03-06T03:37:33.467Z,57.24
2019-03-06T03:41:40.376Z,57.73
2019-03-06T03:45:46.140Z,58.07
2019-03-06T03:49:51.812Z,57.89
2019-03-06T03:53:57.607Z,56.45
2019-03-06T03:58:03.295Z,56.22
2019-03-06T04:02:08.977Z,56.27
2019-03-06T04:06:14.650Z,56.26
2019-03-06T04:10:22.170Z,56.97
2019-03-06T04:14:27.872Z,57.83
2019-03-06T04:18:33.613Z,57.92
2019-03-06T04:22:39.850Z,58.03
2019-03-06T04:26:45.567Z,58.54
2019-03-06T04:30:52.637Z,58.38
2019-03-06T04:34:58.463Z,59.32
2019-03-06T04:39:05.014Z,59.29
2019-03-06T04:43:10.873Z,59.61
2019-03-06T04:47:16.542Z,59.63
2019-03-06T04:51:22.236Z,59.26
2019-03-06T04:55:30.933Z,59.47
2019-03-06T04:59:36.612Z,59.88
2019-03-06T05:03:42.303Z,59.74
2019-03-06T05:07:47.969Z,59.74
2019-03-06T05:11:53.655Z,60.23
2019-03-06T05:15:59.443Z,59.26
2019-03-06T05:20:07.635Z,58.57
2019-03-06T05:24:13.308Z,58.67
2019-03-06T05:28:18.967Z,58.47
2019-03-06T05:32:32.992Z,58.29
2019-03-06T05:36:54.905Z,57.29
2019-03-06T05:41:00.664Z,56.88
2019-03-06T05:45:08.968Z,56.60
2019-03-06T05:49:14.649Z,57.64
2019-03-06T05:53:20.352Z,57.57
2019-03-06T05:57:26.033Z,57.13
2019-03-06T06:01:31.726Z,55.44
2019-03-06T06:05:37.434Z,55.03
2019-03-06T06:09:43.076Z,54.80
2019-03-06T06:13:48.755Z,54.93
2019-03-06T06:17:54.461Z,55.25
2019-03-06T06:22:13.799Z,55.66
2019-03-06T06:26:19.468Z,55.64
2019-03-06T06:30:25.165Z,56.21
2019-03-06T06:34:30.856Z,56.26
2019-03-06T06:38:37.515Z,56.13
2019-03-06T06:42:43.410Z,55.47
2019-03-06T06:46:49.281Z,54.58
2019-03-06T06:51:08.423Z,53.20
2019-03-06T06:55:18.712Z,52.08
2019-03-06T06:59:38.023Z,52.40
2019-03-06T07:04:01.710Z,52.00
2019-03-06T07:08:13.346Z,52.32
2019-03-06T07:12:26.381Z,52.00
2019-03-06T07:16:42.429Z,51.50
2019-03-06T07:20:54.001Z,51.15
2019-03-06T07:25:01.382Z,48.68
2019-03-06T07:29:20.752Z,47.66
2019-03-06T07:33:28.190Z,45.93
2019-03-06T07:37:38.281Z,43.98
2019-03-06T07:42:01.814Z,43.96
2019-03-06T07:46:25.364Z,44.21
2019-03-06T07:50:48.833Z,44.92
2019-03-06T07:55:08.379Z,44.82
2019-03-06T07:59:14.060Z,43.38
2019-03-06T08:03:21.289Z,42.95
2019-03-06T08:07:26.986Z,42.26
2019-03-06T08:11:34.312Z,43.37
2019-03-06T08:15:48.736Z,43.19
2019-03-06T08:19:56.943Z,42.93
2019-03-06T08:24:17.820Z,43.07
2019-03-06T08:28:23.205Z,43.40
2019-03-06T08:32:30.079Z,43.28
2019-03-06T08:36:36.808Z,43.87
2019-03-06T08:40:42.706Z,42.84
2019-03-06T08:44:48.370Z,42.36
2019-03-06T08:49:01.238Z,42.46
2019-03-06T08:53:20.776Z,42.39
2019-03-06T08:57:41.915Z,42.04
2019-03-06T09:02:00.002Z,40.54
2019-03-06T09:06:08.611Z,38.04
2019-03-06T09:10:22.705Z,36.96
2019-03-06T09:14:36.109Z,35.03
2019-03-06T09:18:43.437Z,33.39
2019-03-06T09:23:02.923Z,32.93
2019-03-06T09:27:26.753Z,34.37
2019-03-06T09:31:35.695Z,36.41
2019-03-06T09:35:43.019Z,35.84
2019-03-06T09:39:53.087Z,36.59
2019-03-06T09:44:00.496Z,37.33
2019-03-06T09:48:08.923Z,35.11
2019-03-06T09:52:21.990Z,35.95
2019-03-06T09:56:29.322Z,35.63
2019-03-06T10:00:52.480Z,35.10
2019-03-06T10:05:03.394Z,35.74
2019-03-06T10:09:25.039Z,36.20
2019-03-06T10:13:32.367Z,36.58
2019-03-06T10:17:39.693Z,37.13
2019-03-06T10:21:45.380Z,38.61
2019-03-06T10:25:51.155Z,39.68
2019-03-06T10:29:57.009Z,39.55
2019-03-06T10:34:02.706Z,40.02
2019-03-06T10:38:14.139Z,39.85
2019-03-06T10:42:15.875Z,39.50
2019-03-06T10:46:21.579Z,38.94
2019-03-06T10:50:30.425Z,39.37
2019-03-06T10:54:37.884Z,39.82
2019-03-06T10:58:42.341Z,40.20
2019-03-06T11:03:08.410Z,40.11
2019-03-06T11:07:14.640Z,40.27
2019-03-06T11:11:20.523Z,40.24
2019-03-06T11:15:26.716Z,40.39
2019-03-06T11:19:32.481Z,39.57
2019-03-06T11:23:38.181Z,40.01
2019-03-06T11:27:43.939Z,39.07
2019-03-06T11:31:49.961Z,38.79
2019-03-06T11:35:59.276Z,38.64
2019-03-06T11:40:09.119Z,37.00
2019-03-06T11:44:14.925Z,36.69
2019-03-06T11:48:22.600Z,33.99
2019-03-06T11:52:28.773Z,32.32
2019-03-06T11:56:34.793Z,31.21
2019-03-06T12:00:44.493Z,30.49
2019-03-06T12:04:50.455Z,29.62
2019-03-06T12:08:56.391Z,29.61
2019-03-06T12:13:02.403Z,29.40
2019-03-06T12:17:08.205Z,29.49
2019-03-06T12:21:14.288Z,29.00
2019-03-06T12:25:20.124Z,28.79
2019-03-06T12:29:27.795Z,29.20
2019-03-06T12:33:33.324Z,29.43
2019-03-06T12:37:46.669Z,29.25
2019-03-06T12:41:46.552Z,30.31
2019-03-06T12:46:23.429Z,29.51
2019-03-06T12:50:30.853Z,29.07
2019-03-06T12:54:36.611Z,28.03
2019-03-06T12:58:42.339Z,28.30
2019-03-06T13:02:48.239Z,28.28
2019-03-06T13:06:54.145Z,27.67
2019-03-06T13:10:59.919Z,26.13
2019-03-06T13:15:12.366Z,24.78
2019-03-06T13:19:18.133Z,23.24
2019-03-06T13:23:23.898Z,22.81
2019-03-06T13:27:29.839Z,22.27
2019-03-06T13:31:35.673Z,24.40
2019-03-06T13:35:41.495Z,25.12
2019-03-06T13:39:47.264Z,25.99
2019-03-06T13:43:53.051Z,26.47
2019-03-06T13:47:58.871Z,25.23
2019-03-06T13:52:04.624Z,24.70
2019-03-06T13:56:11.292Z,24.84
2019-03-06T14:00:26.689Z,25.84
2019-03-06T14:04:33.354Z,26.50
2019-03-06T14:08:39.406Z,25.54
2019-03-06T14:12:45.146Z,24.37
2019-03-06T14:16:51.207Z,24.07
2019-03-06T14:20:57.008Z,25.11
2019-03-06T14:25:02.995Z,25.75
2019-03-06T14:29:08.759Z,26.25
2019-03-06T14:33:14.611Z,26.71
2019-03-06T14:37:20.308Z,26.58
2019-03-06T14:41:26.208Z,27.48
2019-03-06T14:45:32.108Z,27.55
2019-03-06T14:49:37.895Z,28.25
2019-03-06T14:53:43.657Z,28.23
2019-03-06T14:57:49.384Z,28.75
2019-03-06T15:01:55.098Z,28.83
2019-03-06T15:06:00.960Z,28.84
2019-03-06T15:10:19.148Z,28.83
2019-03-06T15:14:24.879Z,29.09
2019-03-06T15:18:30.569Z,29.21
2019-03-06T15:22:38.801Z,29.86
2019-03-06T15:26:43.955Z,29.48
2019-03-06T15:30:49.797Z,30.06
2019-03-06T15:34:55.561Z,30.09
2019-03-06T15:39:01.364Z,30.42
2019-03-06T15:43:19.277Z,31.51
2019-03-06T15:47:33.429Z,31.50
2019-03-06T15:51:34.642Z,31.30
2019-03-06T15:56:17.671Z,31.33
2019-03-06T16:00:34.936Z,31.56
2019-03-06T16:04:40.768Z,31.95
2019-03-06T16:08:46.486Z,33.17
2019-03-06T16:12:52.395Z,33.29
2019-03-06T16:16:59.023Z,32.86
2019-03-06T16:21:06.776Z,32.55
2019-03-06T16:25:18.595Z,33.08
2019-03-06T16:29:24.299Z,32.03
2019-03-06T16:40:16.942Z,32.51
2019-03-06T16:45:16.917Z,32.53
2019-03-06T16:49:25.497Z,32.34
2019-03-06T16:53:29.993Z,33.05
2019-03-06T16:57:35.835Z,32.72
2019-03-06T17:01:41.606Z,32.44
2019-03-06T17:05:49.316Z,32.92
2019-03-06T17:09:55.151Z,33.17
2019-03-06T17:14:00.916Z,33.20
2019-03-06T17:18:07.213Z,33.27
2019-03-06T17:22:12.992Z,33.02
2019-03-06T17:26:20.697Z,35.00
2019-03-06T17:30:35.105Z,35.05
2019-03-06T17:35:17.029Z,35.28
2019-03-06T17:39:22.932Z,35.43
2019-03-06T17:43:30.318Z,35.08
2019-03-06T17:47:36.090Z,34.64
2019-03-06T17:51:41.866Z,33.71
2019-03-06T17:55:47.641Z,35.44
2019-03-06T17:59:53.612Z,35.46
2019-03-06T18:04:01.053Z,36.56
2019-03-06T18:08:08.031Z,36.97
2019-03-06T18:12:13.753Z,36.19
2019-03-06T18:16:19.468Z,36.00
2019-03-06T18:20:25.168Z,36.34
2019-03-06T18:24:30.930Z,36.13
2019-03-06T18:28:36.821Z,36.19
2019-03-06T18:33:13.004Z,36.99
2019-03-06T18:37:18.762Z,37.15
2019-03-06T18:41:24.495Z,35.38
2019-03-06T18:45:30.314Z,34.48
2019-03-06T18:49:37.757Z,34.69
2019-03-06T18:53:43.553Z,34.83
2019-03-06T18:57:49.379Z,35.93
2019-03-06T19:01:55.252Z,35.71
2019-03-06T19:06:00.982Z,34.40
2019-03-06T19:10:17.850Z,34.31
2019-03-06T19:14:23.769Z,34.43
2019-03-06T19:18:29.502Z,34.54
2019-03-06T19:22:35.443Z,34.68
2019-03-06T19:26:41.147Z,34.70
2019-03-06T19:30:46.908Z,34.33
2019-03-06T19:34:52.672Z,34.63
2019-03-06T19:38:58.376Z,35.07
2019-03-06T19:43:04.230Z,34.33
2019-03-06T19:47:10.084Z,34.29
2019-03-06T19:51:16.072Z,36.02
2019-03-06T19:55:21.962Z,34.59
2019-03-06T19:59:27.764Z,34.29
2019-03-06T20:03:33.537Z,34.80
2019-03-06T20:07:39.348Z,35.68
2019-03-06T20:11:45.071Z,35.34
2019-03-06T20:15:50.821Z,34.23
2019-03-06T20:19:56.763Z,35.65
2019-03-06T20:24:02.561Z,34.15
2019-03-06T20:28:08.473Z,34.58
2019-03-06T20:32:14.167Z,35.35
2019-03-06T20:36:19.881Z,34.41
2019-03-06T20:40:25.647Z,35.32
2019-03-06T20:44:31.357Z,35.54
2019-03-06T20:48:37.028Z,33.96
2019-03-06T20:52:42.826Z,35.38
2019-03-06T20:56:50.315Z,34.53
2019-03-06T21:00:56.095Z,35.97
2019-03-06T21:10:20.602Z,36.80
2019-03-06T21:14:26.303Z,35.89
2019-03-06T21:18:31.982Z,37.78
2019-03-06T21:22:37.850Z,35.13
2019-03-06T21:26:43.556Z,34.89
2019-03-06T21:31:16.446Z,34.62
2019-03-06T21:35:22.307Z,35.08
2019-03-06T21:39:27.973Z,35.50
2019-03-06T21:43:33.773Z,35.46
2019-03-06T21:47:39.580Z,35.07
2019-03-06T21:51:46.263Z,35.18
2019-03-06T21:55:51.956Z,35.31
2019-03-06T21:59:57.649Z,35.32
2019-03-06T22:04:03.681Z,35.72
2019-03-06T22:08:09.515Z,35.66
2019-03-06T22:12:15.218Z,35.65
2019-03-06T22:16:20.927Z,35.79
2019-03-06T22:20:26.629Z,36.03
2019-03-06T22:24:32.324Z,36.03
2019-03-06T22:28:38.042Z,37.16
2019-03-06T22:32:43.731Z,37.48
2019-03-06T22:36:49.492Z,37.57
2019-03-06T22:40:55.150Z,36.82
2019-03-06T22:45:00.908Z,35.98
2019-03-06T22:49:07.774Z,36.10
2019-03-06T22:53:13.471Z,35.95
2019-03-06T22:57:19.157Z,35.90
2019-03-06T23:01:29.245Z,36.01
2019-03-06T23:05:37.152Z,36.20
2019-03-06T23:09:42.835Z,36.00
2019-03-06T23:13:48.528Z,36.27
2019-03-06T23:17:54.216Z,36.61
2019-03-06T23:21:59.940Z,36.33
2019-03-06T23:26:05.710Z,36.25
2019-03-06T23:30:14.414Z,36.06
2019-03-06T23:34:20.169Z,35.93
2019-03-06T23:38:25.905Z,36.05
2019-03-06T23:42:31.626Z,36.11
2019-03-06T23:46:37.324Z,36.28
2019-03-06T23:50:43.007Z,36.04
2019-03-06T23:54:49.776Z,36.36
2019-03-06T23:58:56.510Z,36.43
